createdAt,value
2019-02-26T00:01:48.537Z,24.30
2019-02-26T00:04:27.176Z,24.30
2019-02-26T00:07:05.726Z,24.30
2019-02-26T00:09:44.718Z,24.40
2019-02-26T00:12:24.197Z,24.40
2019-02-26T00:15:03.462Z,24.50
2019-02-26T00:17:45.256Z,24.60
2019-02-26T00:20:22.272Z,24.50
2019-02-26T00:23:02.020Z,24.50
2019-02-26T00:25:41.353Z,24.50
2019-02-26T00:28:22.076Z,24.50
2019-02-26T00:31:01.762Z,24.60
2019-02-26T00:33:41.025Z,24.50
2019-02-26T00:36:19.615Z,24.60
2019-02-26T00:39:00.257Z,24.70
2019-02-26T00:41:40.324Z,25.00
2019-02-26T00:44:21.184Z,25.00
2019-02-26T00:46:59.732Z,25.10
2019-02-26T00:49:38.651Z,25.20
2019-02-26T00:52:17.135Z,25.20
2019-02-26T00:54:57.594Z,25.10
2019-02-26T00:57:36.470Z,25.20
2019-02-26T01:00:17.290Z,25.40
2019-02-26T01:02:55.990Z,25.50
2019-02-26T01:05:36.133Z,25.60
2019-02-26T01:08:15.737Z,25.60
2019-02-26T01:10:54.333Z,25.80
2019-02-26T01:13:33.149Z,25.90
2019-02-26T01:16:11.867Z,26.00
2019-02-26T01:18:51.034Z,26.00
2019-02-26T01:21:31.126Z,26.00
2019-02-26T01:24:10.895Z,25.70
2019-02-26T01:26:49.594Z,25.60
2019-02-26T01:29:29.995Z,25.60
2019-02-26T01:32:11.033Z,25.60
2019-02-26T01:34:49.766Z,25.50
2019-02-26T01:37:29.901Z,25.60
2019-02-26T01:40:12.287Z,25.50
2019-02-26T01:42:52.210Z,25.60
2019-02-26T01:45:30.356Z,25.70
2019-02-26T01:48:11.438Z,26.00
2019-02-26T01:50:49.323Z,26.40
2019-02-26T01:53:28.033Z,26.70
2019-02-26T01:56:07.250Z,26.70
2019-02-26T01:58:45.741Z,26.60
2019-02-26T02:01:26.006Z,26.70
2019-02-26T02:04:04.041Z,26.90
2019-02-26T02:06:42.983Z,27.10
2019-02-26T02:09:24.558Z,26.60
2019-02-26T02:12:04.219Z,26.90
2019-02-26T02:14:53.799Z,27.10
2019-02-26T02:17:36.027Z,27.30
2019-02-26T02:20:24.527Z,27.20
2019-02-26T02:23:19.426Z,27.30
2019-02-26T02:26:02.209Z,27.40
2019-02-26T02:28:45.668Z,27.70
2019-02-26T02:31:30.321Z,27.80
2019-02-26T02:34:06.776Z,28.00
2019-02-26T02:36:45.915Z,28.00
2019-02-26T02:39:29.214Z,27.70
2019-02-26T02:42:22.013Z,27.20
2019-02-26T02:45:07.590Z,27.20
2019-02-26T02:47:57.839Z,27.00
2019-02-26T02:50:36.255Z,27.10
2019-02-26T02:53:17.760Z,27.30
2019-02-26T02:55:55.354Z,27.60
2019-02-26T02:58:34.769Z,27.60
2019-02-26T03:01:16.179Z,28.30
2019-02-26T03:03:56.424Z,28.40
2019-02-26T03:06:38.556Z,28.80
2019-02-26T03:09:19.802Z,28.70
2019-02-26T03:11:58.762Z,28.90
2019-02-26T03:14:42.098Z,29.20
2019-02-26T03:17:20.713Z,29.20
2019-02-26T03:20:01.630Z,29.40
2019-02-26T03:22:42.248Z,29.70
2019-02-26T03:25:22.947Z,29.90
2019-02-26T03:28:00.091Z,30.00
2019-02-26T03:30:43.615Z,30.10
2019-02-26T03:33:19.555Z,29.90
2019-02-26T03:35:58.451Z,29.90
2019-02-26T03:38:37.608Z,29.60
2019-02-26T03:41:22.234Z,29.80
2019-02-26T03:44:00.560Z,29.80
2019-02-26T03:46:38.228Z,29.80
2019-02-26T03:49:17.353Z,29.80
2019-02-26T03:51:59.443Z,30.00
2019-02-26T03:54:39.852Z,29.70
2019-02-26T03:57:16.753Z,29.30
2019-02-26T03:59:55.987Z,29.20
2019-02-26T04:02:36.754Z,29.40
2019-02-26T04:05:14.957Z,29.80
2019-02-26T04:07:55.572Z,30.20
2019-02-26T04:10:33.155Z,30.40
2019-02-26T04:13:13.207Z,30.40
2019-02-26T04:15:54.085Z,30.20
2019-02-26T04:18:34.707Z,30.40
2019-02-26T04:21:17.657Z,30.50
2019-02-26T04:23:54.034Z,30.70
2019-02-26T04:27:01.261Z,30.50
2019-02-26T04:30:16.291Z,30.80
2019-02-26T04:33:44.255Z,31.00
2019-02-26T04:37:01.424Z,31.20
2019-02-26T04:40:17.066Z,31.30
2019-02-26T04:43:44.600Z,31.50
2019-02-26T04:47:10.063Z,31.20
2019-02-26T04:49:48.694Z,31.10
2019-02-26T04:52:29.360Z,31.20
2019-02-26T04:55:07.615Z,31.40
2019-02-26T04:57:48.509Z,31.60
2019-02-26T05:00:29.739Z,31.60
2019-02-26T05:03:08.595Z,31.70
2019-02-26T05:05:51.193Z,31.70
2019-02-26T05:08:26.557Z,31.20
2019-02-26T05:11:04.664Z,31.10
2019-02-26T05:13:43.186Z,31.40
2019-02-26T05:16:21.887Z,31.70
2019-02-26T05:19:00.574Z,31.50
2019-02-26T05:21:39.556Z,31.30
2019-02-26T05:24:18.932Z,31.30
2019-02-26T05:26:58.400Z,31.40
2019-02-26T05:29:40.420Z,31.50
2019-02-26T05:32:17.041Z,31.50
2019-02-26T05:34:55.761Z,31.50
2019-02-26T05:37:37.330Z,31.60
2019-02-26T05:40:18.346Z,31.70
2019-02-26T05:42:56.145Z,31.60
2019-02-26T05:45:35.594Z,31.60
2019-02-26T05:48:16.173Z,31.70
2019-02-26T05:50:54.243Z,31.50
2019-02-26T05:53:33.642Z,31.60
2019-02-26T05:56:14.425Z,31.80
2019-02-26T05:58:52.767Z,31.80
2019-02-26T06:01:31.492Z,31.70
2019-02-26T06:04:12.343Z,31.70
2019-02-26T06:06:53.151Z,31.80
2019-02-26T06:09:33.646Z,31.80
2019-02-26T06:12:10.032Z,31.90
2019-02-26T06:14:48.890Z,32.60
2019-02-26T06:17:27.728Z,32.80
2019-02-26T06:20:13.548Z,32.50
2019-02-26T06:22:51.693Z,32.50
2019-02-26T06:25:30.547Z,32.40
2019-02-26T06:28:12.134Z,31.60
2019-02-26T06:30:49.207Z,31.40
2019-02-26T06:33:31.699Z,31.40
2019-02-26T06:36:08.168Z,31.50
2019-02-26T06:38:49.562Z,31.60
2019-02-26T06:41:26.982Z,31.40
2019-02-26T06:44:05.620Z,31.50
2019-02-26T06:46:44.531Z,31.90
2019-02-26T06:49:24.594Z,31.80
2019-02-26T06:52:03.134Z,31.80
2019-02-26T06:54:41.557Z,31.50
2019-02-26T06:57:20.310Z,31.50
2019-02-26T07:00:01.153Z,31.80
2019-02-26T07:02:39.470Z,32.30
2019-02-26T07:05:19.373Z,32.00
2019-02-26T07:07:59.575Z,31.60
2019-02-26T07:10:38.212Z,32.10
2019-02-26T07:13:16.476Z,31.80
2019-02-26T07:15:55.162Z,31.70
2019-02-26T07:18:34.144Z,31.50
2019-02-26T07:21:12.595Z,31.50
2019-02-26T07:23:52.227Z,31.70
2019-02-26T07:26:31.427Z,31.80
2019-02-26T07:29:12.616Z,31.90
2019-02-26T07:31:51.780Z,32.30
2019-02-26T07:34:30.263Z,32.50
2019-02-26T07:37:11.107Z,32.80
2019-02-26T07:39:49.695Z,32.80
2019-02-26T07:42:32.690Z,32.80
2019-02-26T07:45:15.138Z,32.60
2019-02-26T07:47:49.152Z,32.80
2019-02-26T07:50:31.399Z,33.00
2019-02-26T07:53:09.694Z,33.00
2019-02-26T07:55:49.007Z,32.60
2019-02-26T07:58:27.538Z,32.50
2019-02-26T08:01:06.314Z,32.50
2019-02-26T08:03:46.965Z,32.50
2019-02-26T08:06:29.287Z,32.60
2019-02-26T08:09:10.897Z,32.70
2019-02-26T08:11:49.070Z,32.40
2019-02-26T08:14:27.306Z,31.90
2019-02-26T08:17:06.287Z,31.70
2019-02-26T08:19:46.789Z,31.90
2019-02-26T08:22:26.984Z,32.30
2019-02-26T08:25:04.712Z,32.10
2019-02-26T08:27:43.666Z,32.30
2019-02-26T08:30:25.574Z,32.20
2019-02-26T08:33:06.763Z,32.20
2019-02-26T08:35:44.529Z,32.40
2019-02-26T08:38:23.717Z,32.30
2019-02-26T08:41:02.051Z,32.30
2019-02-26T08:43:44.115Z,32.30
2019-02-26T08:46:21.752Z,32.60
2019-02-26T08:49:08.103Z,32.70
2019-02-26T08:51:40.918Z,32.80
2019-02-26T08:54:21.279Z,32.90
2019-02-26T08:56:59.523Z,32.70
2019-02-26T08:59:39.489Z,32.50
2019-02-26T09:02:18.145Z,32.60
2019-02-26T09:04:59.129Z,32.50
2019-02-26T09:07:38.557Z,32.30
2019-02-26T09:10:22.642Z,32.40
2019-02-26T09:12:58.844Z,32.50
2019-02-26T09:15:39.032Z,32.60
2019-02-26T09:18:20.298Z,32.40
2019-02-26T09:20:57.669Z,32.30
2019-02-26T09:23:36.650Z,32.30
2019-02-26T09:26:15.426Z,32.20
2019-02-26T09:28:55.409Z,32.00
2019-02-26T09:31:34.556Z,31.90
2019-02-26T09:34:13.405Z,31.90
2019-02-26T09:36:52.953Z,31.90
2019-02-26T09:39:34.119Z,31.70
2019-02-26T09:42:11.705Z,31.80
2019-02-26T09:44:52.885Z,31.90
2019-02-26T09:47:34.554Z,31.90
2019-02-26T09:50:15.362Z,31.90
2019-02-26T09:52:56.538Z,31.90
2019-02-26T09:55:34.780Z,31.90
2019-02-26T09:58:13.435Z,31.80
2019-02-26T10:00:54.053Z,31.80
2019-02-26T10:03:36.692Z,31.60
2019-02-26T10:06:14.125Z,31.50
2019-02-26T10:08:53.320Z,31.60
2019-02-26T10:11:32.879Z,31.50
2019-02-26T10:14:12.686Z,31.40
2019-02-26T10:16:55.032Z,31.40
2019-02-26T10:19:35.550Z,31.20
2019-02-26T10:22:13.930Z,31.20
2019-02-26T10:24:57.241Z,31.20
2019-02-26T10:27:38.301Z,31.20
2019-02-26T10:30:18.539Z,31.10
2019-02-26T10:33:02.849Z,31.10
2019-02-26T10:35:44.310Z,31.00
2019-02-26T10:38:24.086Z,30.90
2019-02-26T10:41:01.896Z,30.90
2019-02-26T10:43:40.771Z,30.90
2019-02-26T10:46:19.673Z,30.80
2019-02-26T10:48:59.907Z,30.80
2019-02-26T10:51:42.408Z,30.70
2019-02-26T10:54:18.598Z,30.60
2019-02-26T10:56:59.690Z,30.60
2019-02-26T10:59:37.337Z,30.60
2019-02-26T11:02:22.119Z,30.50
2019-02-26T11:05:01.386Z,30.50
2019-02-26T11:07:40.987Z,30.40
2019-02-26T11:10:21.014Z,30.40
2019-02-26T11:13:00.225Z,30.20
2019-02-26T11:15:39.122Z,30.20
2019-02-26T11:18:18.703Z,30.10
2019-02-26T11:20:59.283Z,29.90
2019-02-26T11:23:38.837Z,29.90
2019-02-26T11:26:18.929Z,29.90
2019-02-26T11:28:57.463Z,29.80
2019-02-26T11:31:36.466Z,29.80
2019-02-26T11:34:16.313Z,29.70
2019-02-26T11:36:56.121Z,29.70
2019-02-26T11:39:35.106Z,29.70
2019-02-26T11:42:15.848Z,29.60
2019-02-26T11:44:54.015Z,29.40
2019-02-26T11:47:36.346Z,29.40
2019-02-26T11:50:14.102Z,29.40
2019-02-26T11:52:54.991Z,29.30
2019-02-26T11:55:36.872Z,29.20
2019-02-26T11:58:15.734Z,29.20
2019-02-26T12:00:58.000Z,29.20
2019-02-26T12:03:38.928Z,29.20
2019-02-26T12:06:16.730Z,29.20
2019-02-26T12:08:55.839Z,29.10
2019-02-26T12:11:33.948Z,29.00
2019-02-26T12:14:13.744Z,29.00
2019-02-26T12:16:52.286Z,29.00
2019-02-26T12:19:34.269Z,29.00
2019-02-26T12:22:12.005Z,28.90
2019-02-26T12:24:55.702Z,28.80
2019-02-26T12:27:32.472Z,28.80
2019-02-26T12:30:13.325Z,28.70
2019-02-26T12:32:55.157Z,28.70
2019-02-26T12:35:33.867Z,28.80
2019-02-26T12:38:20.627Z,28.80
2019-02-26T12:40:53.558Z,28.70
2019-02-26T12:43:33.232Z,28.60
2019-02-26T12:46:12.360Z,28.60
2019-02-26T12:48:51.950Z,28.70
2019-02-26T12:51:31.742Z,28.60
2019-02-26T12:54:13.712Z,28.50
2019-02-26T12:56:52.312Z,28.40
2019-02-26T12:59:30.912Z,28.50
2019-02-26T13:02:12.873Z,28.40
2019-02-26T13:04:51.094Z,28.40
2019-02-26T13:07:30.338Z,28.40
2019-02-26T13:10:09.208Z,28.40
2019-02-26T13:12:52.934Z,28.40
2019-02-26T13:15:28.159Z,28.30
2019-02-26T13:18:07.315Z,28.20
2019-02-26T13:20:52.120Z,28.20
2019-02-26T13:23:27.637Z,28.20
2019-02-26T13:26:10.305Z,28.20
2019-02-26T13:28:52.798Z,28.10
2019-02-26T13:31:41.713Z,28.00
2019-02-26T13:34:15.361Z,28.00
2019-02-26T13:36:56.778Z,27.90
2019-02-26T13:39:38.441Z,27.80
2019-02-26T13:42:19.145Z,27.70
2019-02-26T13:44:54.181Z,27.70
2019-02-26T13:47:33.445Z,27.60
2019-02-26T13:50:13.141Z,27.70
2019-02-26T13:52:52.525Z,27.90
2019-02-26T13:55:31.441Z,27.90
2019-02-26T13:58:11.890Z,27.90
2019-02-26T14:00:50.299Z,27.80
2019-02-26T14:03:29.151Z,27.80
2019-02-26T14:06:08.025Z,27.80
2019-02-26T14:08:46.723Z,27.70
2019-02-26T14:11:25.250Z,27.50
2019-02-26T14:14:04.102Z,27.50
2019-02-26T14:16:43.063Z,27.50
2019-02-26T14:19:21.817Z,27.30
2019-02-26T14:22:00.443Z,27.20
2019-02-26T14:24:40.139Z,27.40
2019-02-26T14:27:18.331Z,27.30
2019-02-26T14:29:56.883Z,27.30
2019-02-26T14:32:35.950Z,27.30
2019-02-26T14:35:16.137Z,27.40
2019-02-26T14:37:55.730Z,27.40
2019-02-26T14:40:34.482Z,27.40
2019-02-26T14:43:13.518Z,27.30
2019-02-26T14:45:52.482Z,27.30
2019-02-26T14:48:31.358Z,27.30
2019-02-26T14:51:09.802Z,27.30
2019-02-26T14:53:49.252Z,27.20
2019-02-26T14:56:28.321Z,27.20
2019-02-26T14:59:06.806Z,27.00
2019-02-26T15:01:45.760Z,27.00
2019-02-26T15:04:24.484Z,27.10
2019-02-26T15:07:03.492Z,27.10
2019-02-26T15:09:42.663Z,27.10
2019-02-26T15:12:21.142Z,27.00
2019-02-26T15:14:59.830Z,26.90
2019-02-26T15:17:40.828Z,26.70
2019-02-26T15:20:21.228Z,26.70
2019-02-26T15:22:59.897Z,26.80
2019-02-26T15:25:39.012Z,26.90
2019-02-26T15:28:18.097Z,26.80
2019-02-26T15:30:56.917Z,26.80
2019-02-26T15:33:35.849Z,26.70
2019-02-26T15:36:14.547Z,26.70
2019-02-26T15:38:53.626Z,26.70
2019-02-26T15:41:34.094Z,26.80
2019-02-26T15:44:12.054Z,26.80
2019-02-26T15:46:51.976Z,26.80
2019-02-26T15:49:31.172Z,26.70
2019-02-26T15:52:09.526Z,26.80
2019-02-26T15:54:49.324Z,26.80
2019-02-26T15:57:28.592Z,26.70
2019-02-26T16:00:07.786Z,26.70
2019-02-26T16:02:46.714Z,26.70
2019-02-26T16:05:26.034Z,26.60
2019-02-26T16:08:05.674Z,26.70
2019-02-26T16:10:44.397Z,26.70
2019-02-26T16:13:23.580Z,26.70
2019-02-26T16:16:01.767Z,26.60
2019-02-26T16:18:40.262Z,26.40
2019-02-26T16:21:19.476Z,26.40
2019-02-26T16:23:57.943Z,26.40
2019-02-26T16:26:40.731Z,26.40
2019-02-26T16:29:16.613Z,26.50
2019-02-26T16:31:57.263Z,26.50
2019-02-26T16:34:35.666Z,26.40
2019-02-26T16:37:15.352Z,26.50
2019-02-26T16:39:56.029Z,26.50
2019-02-26T16:42:34.796Z,26.40
2019-02-26T16:45:15.496Z,26.40
2019-02-26T16:47:54.707Z,26.40
2019-02-26T16:50:33.268Z,26.50
2019-02-26T16:53:12.156Z,26.40
2019-02-26T16:55:51.067Z,26.50
2019-02-26T16:58:29.706Z,26.40
2019-02-26T17:01:09.079Z,26.30
2019-02-26T17:03:47.858Z,26.30
2019-02-26T17:06:26.605Z,26.30
2019-02-26T17:09:05.284Z,26.40
2019-02-26T17:11:47.075Z,26.30
2019-02-26T17:14:25.694Z,26.20
2019-02-26T17:17:04.832Z,26.30
2019-02-26T17:19:43.476Z,26.20
2019-02-26T17:22:22.344Z,26.10
2019-02-26T17:25:01.228Z,26.10
2019-02-26T17:27:40.161Z,26.00
2019-02-26T17:30:20.857Z,26.00
2019-02-26T17:32:59.227Z,26.10
2019-02-26T17:35:37.784Z,26.20
2019-02-26T17:38:18.141Z,26.20
2019-02-26T17:40:56.826Z,26.00
2019-02-26T17:43:36.775Z,25.90
2019-02-26T17:46:15.157Z,26.10
2019-02-26T17:48:53.863Z,26.00
2019-02-26T17:51:32.614Z,26.00
2019-02-26T17:54:10.890Z,25.90
2019-02-26T17:56:50.389Z,25.80
2019-02-26T17:59:29.406Z,25.80
2019-02-26T18:02:08.415Z,25.80
2019-02-26T18:04:46.847Z,25.90
2019-02-26T18:07:25.201Z,25.80
2019-02-26T18:10:04.054Z,25.80
2019-02-26T18:12:43.293Z,26.00
2019-02-26T18:15:22.645Z,26.00
2019-02-26T18:18:01.277Z,26.00
2019-02-26T18:20:40.791Z,25.90
2019-02-26T18:23:19.416Z,25.90
2019-02-26T18:25:58.526Z,26.00
2019-02-26T18:28:37.463Z,25.80
2019-02-26T18:31:16.022Z,25.80
2019-02-26T18:33:54.941Z,25.80
2019-02-26T18:36:33.495Z,25.80
2019-02-26T18:39:13.724Z,25.70
2019-02-26T18:41:52.718Z,25.80
2019-02-26T18:44:31.625Z,25.80
2019-02-26T18:47:10.241Z,25.90
2019-02-26T18:49:48.989Z,25.80
2019-02-26T18:52:27.975Z,25.80
2019-02-26T18:55:07.544Z,25.70
2019-02-26T18:57:47.387Z,25.70
2019-02-26T19:00:29.325Z,25.80
2019-02-26T19:03:09.532Z,25.60
2019-02-26T19:05:53.704Z,25.60
2019-02-26T19:08:30.098Z,25.60
2019-02-26T19:11:08.649Z,25.60
2019-02-26T19:13:47.890Z,25.60
2019-02-26T19:16:26.425Z,25.60
2019-02-26T19:19:06.743Z,25.60
2019-02-26T19:21:45.623Z,25.60
2019-02-26T19:24:24.262Z,25.60
2019-02-26T19:27:02.925Z,25.70
2019-02-26T19:29:41.545Z,25.80
2019-02-26T19:32:22.063Z,25.70
2019-02-26T19:35:01.016Z,25.70
2019-02-26T19:37:40.466Z,25.70
2019-02-26T19:40:21.190Z,25.60
2019-02-26T19:43:00.509Z,25.30
2019-02-26T19:45:39.243Z,25.30
2019-02-26T19:48:18.024Z,25.40
2019-02-26T19:50:56.662Z,25.40
2019-02-26T19:53:35.760Z,25.20
2019-02-26T19:56:14.680Z,25.30
2019-02-26T19:58:53.382Z,25.40
2019-02-26T20:01:32.260Z,25.40
2019-02-26T20:04:12.120Z,25.40
2019-02-26T20:06:50.696Z,25.40
2019-02-26T20:09:29.507Z,25.40
2019-02-26T20:12:10.007Z,25.30
2019-02-26T20:14:49.007Z,25.20
2019-02-26T20:17:28.071Z,25.20
2019-02-26T20:20:06.670Z,25.30
2019-02-26T20:22:45.561Z,25.30
2019-02-26T20:26:16.054Z,25.10
2019-02-26T20:28:53.488Z,25.00
2019-02-26T20:31:32.218Z,25.00
2019-02-26T20:34:11.447Z,25.00
2019-02-26T20:36:51.198Z,25.00
2019-02-26T20:39:30.386Z,25.00
2019-02-26T20:42:09.412Z,25.20
2019-02-26T20:44:49.092Z,25.20
2019-02-26T20:47:31.276Z,25.20
2019-02-26T20:50:08.078Z,25.10
2019-02-26T20:52:47.030Z,25.10
2019-02-26T20:55:26.710Z,25.10
2019-02-26T20:58:05.713Z,25.10
2019-02-26T21:00:44.516Z,25.20
2019-02-26T21:03:23.608Z,25.20
2019-02-26T21:06:02.245Z,25.10
2019-02-26T21:08:41.662Z,25.00
2019-02-26T21:11:23.228Z,25.10
2019-02-26T21:14:00.567Z,25.00
2019-02-26T21:16:39.266Z,25.00
2019-02-26T21:19:17.959Z,25.00
2019-02-26T21:21:56.584Z,25.10
2019-02-26T21:24:35.286Z,25.10
2019-02-26T21:27:14.036Z,25.00
2019-02-26T21:29:53.189Z,25.00
2019-02-26T21:32:31.859Z,24.90
2019-02-26T21:35:11.016Z,25.00
2019-02-26T21:37:50.746Z,25.00
2019-02-26T21:40:29.570Z,25.10
2019-02-26T21:43:08.314Z,25.00
2019-02-26T21:45:49.106Z,25.00
2019-02-26T21:48:26.700Z,24.90
2019-02-26T21:51:06.774Z,25.00
2019-02-26T21:53:46.677Z,24.90
2019-02-26T21:56:24.932Z,24.90
2019-02-26T21:59:03.717Z,24.90
2019-02-26T22:01:45.851Z,24.80
2019-02-26T22:04:22.116Z,24.80
2019-02-26T22:07:01.455Z,24.80
2019-02-26T22:09:40.123Z,24.80
2019-02-26T22:12:21.903Z,24.80
2019-02-26T22:14:59.512Z,24.90
2019-02-26T22:17:38.044Z,24.80
2019-02-26T22:20:26.638Z,24.90
2019-02-26T22:23:00.398Z,24.90
2019-02-26T22:25:38.809Z,24.90
2019-02-26T22:28:17.439Z,24.90
2019-02-26T22:30:56.501Z,24.80
2019-02-26T22:33:35.459Z,24.80
2019-02-26T22:36:14.306Z,24.70
2019-02-26T22:38:53.088Z,24.70
2019-02-26T22:41:32.832Z,24.80
2019-02-26T22:44:11.949Z,24.80
2019-02-26T22:46:50.998Z,24.70
2019-02-26T22:49:29.589Z,24.60
2019-02-26T22:52:08.571Z,24.70
2019-02-26T22:54:47.338Z,24.70
2019-02-26T22:57:27.601Z,24.80
2019-02-26T23:00:08.176Z,24.70
2019-02-26T23:02:48.366Z,24.60
2019-02-26T23:05:27.197Z,24.60
2019-02-26T23:08:06.975Z,24.60
2019-02-26T23:10:45.931Z,24.70
2019-02-26T23:13:25.421Z,24.70
2019-02-26T23:16:04.513Z,24.60
2019-02-26T23:18:44.252Z,24.50
2019-02-26T23:21:23.597Z,24.30
2019-02-26T23:24:02.934Z,24.50
2019-02-26T23:26:42.535Z,24.60
2019-02-26T23:29:21.729Z,24.60
2019-02-26T23:32:00.448Z,24.60
2019-02-26T23:34:42.119Z,24.50
2019-02-26T23:37:20.531Z,24.40
2019-02-26T23:39:58.978Z,24.20
2019-02-26T23:42:39.598Z,24.30
2019-02-26T23:45:34.051Z,24.30
2019-02-26T23:48:12.962Z,24.30
2019-02-26T23:50:51.864Z,24.30
2019-02-26T23:53:33.911Z,24.30
2019-02-26T23:56:10.642Z,24.40
2019-02-26T23:58:49.567Z,24.50
